Time;durP1;ratioP1;P1;durP2;ratioP2;P2;SDS_P1;SDS_P2;PMS_P1;PMS_P2;Temp;Humidity;BMP_temperature;BMP_pressure;BME280_temperature;BME280_humidity;BME280_pressure;Samples;Min_cycle;Max_cycle;Signal;HPM_P1;HPM_P2
2022/05/30 00:01:44;;;;;;;2.45;1.00;;;;;;;;;;5050655;28;20040;-60
2022/05/30 00:04:10;;;;;;;1.48;1.02;;;;;;;;;;5055765;28;20029;-60
2022/05/30 00:06:36;;;;;;;4.80;1.40;;;;;;;;;;5057110;28;20050;-60
2022/05/30 00:09:02;;;;;;;1.75;0.95;;;;;;;;;;5050297;28;20086;-60
2022/05/30 00:11:27;;;;;;;2.78;1.20;;;;;;;;;;5059878;28;20024;-60
2022/05/30 00:13:54;;;;;;;1.23;0.98;;;;;;;;;;5051283;28;20029;-60
2022/05/30 00:16:22;;;;;;;10.13;1.10;;;;;;;;;;5050821;28;20028;-59
2022/05/30 00:18:48;;;;;;;1.42;1.08;;;;;;;;;;5056303;28;20060;-60
2022/05/30 00:21:21;;;;;;;2.00;1.10;;;;;;;;;;5054043;28;20078;-60
2022/05/30 00:23:47;;;;;;;3.78;1.30;;;;;;;;;;5050131;28;20057;-60
2022/05/30 00:26:13;;;;;;;3.00;1.50;;;;;;;;;;5060404;28;20021;-60
2022/05/30 00:28:39;;;;;;;2.20;1.10;;;;;;;;;;5050886;28;20716;-61
2022/05/30 00:31:09;;;;;;;3.03;1.10;;;;;;;;;;5053432;28;20082;-60
2022/05/30 00:33:34;;;;;;;2.08;1.20;;;;;;;;;;5057618;28;20021;-60
2022/05/30 00:36:00;;;;;;;2.85;1.30;;;;;;;;;;5054449;28;20033;-60
2022/05/30 00:38:26;;;;;;;1.88;1.08;;;;;;;;;;5056776;28;20464;-60
2022/05/30 00:40:51;;;;;;;2.85;1.45;;;;;;;;;;5055256;28;20083;-60
2022/05/30 00:43:30;;;;;;;4.43;1.60;;;;;;;;;;5050276;28;20090;-60
2022/05/30 00:45:59;;;;;;;2.55;1.60;;;;;;;;;;5058846;28;20057;-60
2022/05/30 00:48:34;;;;;;;2.92;1.50;;;;;;;;;;5054304;28;20029;-61
2022/05/30 00:51:10;;;;;;;3.88;1.50;;;;;;;;;;5054225;28;20053;-61
2022/05/30 00:53:36;;;;;;;4.43;1.67;;;;;;;;;;5053174;28;20039;-60
2022/05/30 00:56:05;;;;;;;4.28;1.20;;;;;;;;;;5060396;28;20045;-61
2022/05/30 00:58:34;;;;;;;1.80;1.27;;;;;;;;;;5053766;28;20028;-61
2022/05/30 01:01:00;;;;;;;2.45;1.42;;;;;;;;;;5055568;28;20028;-59
2022/05/30 01:08:55;;;;;;;1.52;1.13;;;;;;;;;;5058245;28;20106;-60
2022/05/30 01:11:21;;;;;;;6.43;1.55;;;;;;;;;;5066681;28;20054;-60
2022/05/30 01:13:46;;;;;;;1.40;1.30;;;;;;;;;;5062434;28;20109;-60
2022/05/30 01:16:12;;;;;;;3.03;1.63;;;;;;;;;;5059022;28;20072;-60
2022/05/30 01:18:45;;;;;;;4.35;1.45;;;;;;;;;;5057361;28;20037;-60
2022/05/30 01:21:32;;;;;;;4.55;2.10;;;;;;;;;;5059253;28;20515;-60
2022/05/30 01:24:14;;;;;;;2.20;1.58;;;;;;;;;;5057977;28;20037;-60
2022/05/30 01:27:00;;;;;;;3.13;1.60;;;;;;;;;;5054447;28;20435;-60
2022/05/30 01:29:32;;;;;;;6.03;1.95;;;;;;;;;;5058042;28;20052;-60
2022/05/30 01:31:58;;;;;;;5.45;1.60;;;;;;;;;;5059119;28;20041;-60
2022/05/30 01:34:26;;;;;;;4.28;2.25;;;;;;;;;;5059776;28;20486;-60
2022/05/30 01:36:52;;;;;;;1.42;1.20;;;;;;;;;;5057468;28;20565;-60
2022/05/30 01:39:18;;;;;;;4.07;1.75;;;;;;;;;;5058165;28;20112;-60
2022/05/30 01:41:43;;;;;;;4.15;1.80;;;;;;;;;;5056047;28;20033;-60
2022/05/30 01:44:09;;;;;;;3.92;1.75;;;;;;;;;;5061503;28;20048;-60
2022/05/30 01:46:35;;;;;;;3.70;1.63;;;;;;;;;;5056509;28;20029;-60
2022/05/30 01:49:01;;;;;;;3.55;1.90;;;;;;;;;;5059232;28;20389;-60
2022/05/30 01:51:26;;;;;;;11.32;1.60;;;;;;;;;;5058459;28;20040;-60
2022/05/30 01:53:52;;;;;;;2.63;1.45;;;;;;;;;;5059456;28;20056;-60
2022/05/30 01:56:19;;;;;;;5.82;1.63;;;;;;;;;;5062763;28;20440;-58
2022/05/30 01:58:44;;;;;;;3.70;1.70;;;;;;;;;;5059231;28;20040;-60
2022/05/30 02:01:16;;;;;;;3.70;1.60;;;;;;;;;;5056830;28;20028;-60
2022/05/30 02:03:44;;;;;;;2.30;1.70;;;;;;;;;;5054478;28;20059;-60
2022/05/30 02:06:10;;;;;;;5.57;1.55;;;;;;;;;;5058409;28;20168;-60
2022/05/30 02:08:36;;;;;;;3.25;1.40;;;;;;;;;;5061706;28;20111;-61
2022/05/30 02:11:02;;;;;;;3.30;1.45;;;;;;;;;;5065179;28;20033;-59
2022/05/30 02:13:28;;;;;;;5.60;2.10;;;;;;;;;;5054880;28;20029;-61
2022/05/30 02:18:37;;;;;;;2.30;1.88;;;;;;;;;;5059004;28;20538;-60
2022/05/30 02:21:03;;;;;;;2.95;1.63;;;;;;;;;;5064940;28;20029;-60
2022/05/30 02:23:29;;;;;;;3.47;1.88;;;;;;;;;;5057508;28;20037;-60
2022/05/30 02:25:54;;;;;;;3.05;1.90;;;;;;;;;;5057799;28;20048;-60
2022/05/30 02:28:20;;;;;;;5.47;1.88;;;;;;;;;;5061513;28;20043;-59
2022/05/30 02:30:46;;;;;;;3.72;1.58;;;;;;;;;;5059727;28;20040;-60
2022/05/30 02:38:40;;;;;;;3.97;1.85;;;;;;;;;;5059374;28;20036;-60
2022/05/30 02:41:06;;;;;;;4.30;1.67;;;;;;;;;;5062701;28;20021;-60
2022/05/30 02:43:31;;;;;;;7.82;1.90;;;;;;;;;;5058910;28;20028;-60
2022/05/30 02:45:57;;;;;;;5.70;1.65;;;;;;;;;;5052405;28;20383;-60
2022/05/30 02:48:23;;;;;;;2.85;1.50;;;;;;;;;;5056108;28;20477;-60
2022/05/30 02:50:49;;;;;;;4.95;1.77;;;;;;;;;;5055993;28;20547;-60
2022/05/30 02:53:15;;;;;;;6.30;1.95;;;;;;;;;;5055151;28;20037;-60
2022/05/30 02:55:40;;;;;;;2.88;1.80;;;;;;;;;;5051646;28;20048;-60
2022/05/30 02:58:06;;;;;;;2.33;1.50;;;;;;;;;;5060666;28;20036;-60
2022/05/30 03:00:32;;;;;;;3.58;1.52;;;;;;;;;;5061867;28;20485;-60
2022/05/30 03:02:57;;;;;;;3.60;1.42;;;;;;;;;;5055481;28;20781;-60
2022/05/30 03:05:23;;;;;;;9.02;1.58;;;;;;;;;;5053996;28;20112;-60
2022/05/30 03:07:49;;;;;;;3.17;2.05;;;;;;;;;;5059695;28;20037;-60
2022/05/30 03:10:15;;;;;;;3.65;1.77;;;;;;;;;;5061021;28;20029;-60
2022/05/30 03:12:40;;;;;;;3.38;1.48;;;;;;;;;;5052292;28;20477;-60
2022/05/30 03:15:07;;;;;;;5.18;1.70;;;;;;;;;;5052302;28;20486;-59
2022/05/30 03:17:32;;;;;;;1.58;1.48;;;;;;;;;;5053493;28;20021;-60
2022/05/30 03:19:58;;;;;;;2.55;1.50;;;;;;;;;;5059847;28;20044;-60
2022/05/30 03:22:24;;;;;;;4.50;1.60;;;;;;;;;;5055705;28;20378;-60
2022/05/30 03:24:49;;;;;;;3.85;1.50;;;;;;;;;;5058364;28;20029;-60
2022/05/30 03:27:15;;;;;;;5.05;1.40;;;;;;;;;;5054120;28;20029;-60
2022/05/30 03:29:41;;;;;;;7.13;1.63;;;;;;;;;;5051403;28;20643;-60
2022/05/30 03:32:07;;;;;;;6.10;1.83;;;;;;;;;;5054960;28;20025;-60
2022/05/30 03:34:33;;;;;;;6.78;2.10;;;;;;;;;;5054136;28;20079;-60
2022/05/30 03:36:58;;;;;;;2.50;1.38;;;;;;;;;;5051850;28;20053;-60
2022/05/30 03:39:24;;;;;;;3.20;1.50;;;;;;;;;;5061283;28;20396;-59
2022/05/30 03:41:50;;;;;;;7.05;1.65;;;;;;;;;;5052360;28;20040;-60
2022/05/30 03:44:15;;;;;;;3.47;1.70;;;;;;;;;;5060498;28;20039;-59
2022/05/30 03:46:41;;;;;;;3.67;1.45;;;;;;;;;;5063315;28;20035;-60
2022/05/30 03:49:07;;;;;;;4.90;1.40;;;;;;;;;;5061669;28;20062;-60
2022/05/30 03:51:33;;;;;;;8.00;1.60;;;;;;;;;;5063459;28;20052;-59
2022/05/30 03:53:59;;;;;;;5.95;1.40;;;;;;;;;;5055437;28;20075;-60
2022/05/30 03:56:25;;;;;;;1.73;1.40;;;;;;;;;;5059571;28;20545;-60
2022/05/30 03:58:50;;;;;;;4.05;1.80;;;;;;;;;;5059322;28;20037;-60
2022/05/30 04:01:17;;;;;;;3.10;1.60;;;;;;;;;;5056450;28;20107;-59
2022/05/30 04:03:42;;;;;;;4.20;1.48;;;;;;;;;;5055327;28;20033;-60
2022/05/30 04:06:08;;;;;;;14.57;1.75;;;;;;;;;;5056161;28;20082;-60
2022/05/30 04:08:35;;;;;;;4.10;1.25;;;;;;;;;;5056450;28;20037;-60
2022/05/30 04:11:01;;;;;;;5.10;1.52;;;;;;;;;;5063636;28;20039;-60
2022/05/30 04:13:27;;;;;;;3.72;1.58;;;;;;;;;;5051526;28;20493;-60
2022/05/30 04:15:52;;;;;;;3.83;1.75;;;;;;;;;;5057494;28;20037;-60
2022/05/30 04:18:18;;;;;;;5.28;1.40;;;;;;;;;;5056117;28;20033;-60
2022/05/30 04:20:46;;;;;;;7.35;2.13;;;;;;;;;;5052816;28;20041;-60
2022/05/30 04:23:13;;;;;;;4.82;1.67;;;;;;;;;;5051187;28;20467;-60
2022/05/30 04:25:39;;;;;;;4.15;1.88;;;;;;;;;;5054018;28;20021;-58
2022/05/30 04:28:05;;;;;;;3.42;1.50;;;;;;;;;;5051940;28;20029;-60
2022/05/30 04:30:31;;;;;;;8.15;1.77;;;;;;;;;;5055725;28;20504;-60
2022/05/30 04:32:57;;;;;;;7.68;1.95;;;;;;;;;;5055901;28;20481;-60
2022/05/30 04:35:22;;;;;;;9.75;1.70;;;;;;;;;;5060971;28;20059;-60
2022/05/30 04:37:50;;;;;;;6.00;2.63;;;;;;;;;;5053568;28;20048;-60
2022/05/30 04:40:18;;;;;;;4.32;1.48;;;;;;;;;;5061549;28;20029;-60
2022/05/30 04:42:45;;;;;;;2.50;1.30;;;;;;;;;;5056946;28;20682;-60
2022/05/30 04:45:11;;;;;;;9.68;1.75;;;;;;;;;;5068158;28;20036;-60
2022/05/30 04:47:39;;;;;;;4.13;1.35;;;;;;;;;;5060734;28;20032;-60
2022/05/30 04:50:13;;;;;;;4.95;1.63;;;;;;;;;;5064825;28;20358;-60
2022/05/30 04:52:40;;;;;;;3.70;1.98;;;;;;;;;;5061032;28;20040;-60
2022/05/30 04:55:07;;;;;;;5.13;1.60;;;;;;;;;;5063924;28;20045;-60
2022/05/30 04:57:40;;;;;;;5.57;1.80;;;;;;;;;;5063055;28;20039;-60
2022/05/30 05:00:06;;;;;;;5.47;1.88;;;;;;;;;;5059637;28;20028;-60
2022/05/30 05:02:32;;;;;;;5.72;1.60;;;;;;;;;;5064997;28;20051;-60
2022/05/30 05:04:58;;;;;;;8.75;1.95;;;;;;;;;;5058715;28;20028;-60
2022/05/30 05:07:23;;;;;;;5.40;1.67;;;;;;;;;;5061046;28;20480;-60
2022/05/30 05:09:56;;;;;;;3.90;1.58;;;;;;;;;;5063185;28;20588;-60
2022/05/30 05:12:22;;;;;;;9.98;2.10;;;;;;;;;;5063085;28;20483;-60
2022/05/30 05:14:48;;;;;;;4.82;1.67;;;;;;;;;;5055366;28;20103;-60
2022/05/30 05:17:14;;;;;;;5.47;1.90;;;;;;;;;;5058299;28;20025;-59
2022/05/30 05:19:41;;;;;;;4.28;1.60;;;;;;;;;;5046950;28;20052;-60
2022/05/30 05:22:12;;;;;;;7.78;1.98;;;;;;;;;;5055342;28;20040;-60
2022/05/30 05:24:38;;;;;;;13.68;2.28;;;;;;;;;;5057881;28;20032;-60
2022/05/30 05:27:05;;;;;;;4.03;1.83;;;;;;;;;;5057248;28;20507;-59
2022/05/30 05:29:31;;;;;;;6.68;2.00;;;;;;;;;;5060360;28;20029;-60
2022/05/30 05:31:57;;;;;;;5.13;2.03;;;;;;;;;;5070651;28;20411;-60
2022/05/30 05:34:23;;;;;;;6.65;2.03;;;;;;;;;;5058295;28;20025;-59
2022/05/30 05:36:49;;;;;;;6.78;1.98;;;;;;;;;;5055977;28;20088;-60
2022/05/30 05:39:17;;;;;;;9.45;2.03;;;;;;;;;;5061043;28;20056;-60
2022/05/30 05:41:44;;;;;;;6.90;2.17;;;;;;;;;;5061341;28;20029;-60
2022/05/30 05:44:12;;;;;;;4.03;1.88;;;;;;;;;;5056283;28;20488;-60
2022/05/30 05:46:38;;;;;;;5.90;2.20;;;;;;;;;;5058852;28;20066;-60
2022/05/30 05:49:06;;;;;;;6.13;2.08;;;;;;;;;;5060962;28;20397;-60
2022/05/30 05:51:31;;;;;;;5.82;1.95;;;;;;;;;;5060896;28;20025;-60
2022/05/30 05:53:57;;;;;;;6.93;2.10;;;;;;;;;;5067214;28;20032;-60
2022/05/30 05:56:26;;;;;;;2.17;1.80;;;;;;;;;;5055945;28;20036;-59
2022/05/30 05:58:52;;;;;;;6.18;1.90;;;;;;;;;;5067477;28;20102;-60
2022/05/30 06:01:23;;;;;;;11.95;1.92;;;;;;;;;;5059929;28;20114;-60
2022/05/30 06:03:52;;;;;;;14.35;2.08;;;;;;;;;;5066252;28;20028;-59
2022/05/30 06:06:18;;;;;;;6.50;2.47;;;;;;;;;;5057393;28;20475;-60
2022/05/30 06:08:44;;;;;;;5.28;2.00;;;;;;;;;;5063096;28;20050;-60
2022/05/30 06:11:11;;;;;;;8.00;2.35;;;;;;;;;;5064381;28;20039;-60
2022/05/30 06:13:42;;;;;;;9.80;2.28;;;;;;;;;;5065280;28;20025;-60
2022/05/30 06:16:11;;;;;;;4.97;2.45;;;;;;;;;;5062658;28;20679;-60
2022/05/30 06:18:36;;;;;;;8.18;2.38;;;;;;;;;;5057870;28;20032;-60
2022/05/30 06:21:03;;;;;;;12.18;2.80;;;;;;;;;;5057112;28;20108;-59
2022/05/30 06:23:29;;;;;;;10.75;2.22;;;;;;;;;;5060184;28;20035;-60
2022/05/30 06:25:55;;;;;;;8.80;3.00;;;;;;;;;;5064938;28;20036;-60
2022/05/30 06:28:21;;;;;;;10.50;2.40;;;;;;;;;;5058141;28;20032;-59
2022/05/30 06:30:47;;;;;;;13.90;2.63;;;;;;;;;;5057813;28;20108;-60
2022/05/30 06:33:13;;;;;;;5.97;2.13;;;;;;;;;;5057095;28;20108;-60
2022/05/30 06:35:40;;;;;;;11.93;2.10;;;;;;;;;;5054781;28;20031;-60
2022/05/30 06:38:09;;;;;;;7.47;2.17;;;;;;;;;;5052843;28;20013;-60
2022/05/30 06:40:35;;;;;;;10.65;2.55;;;;;;;;;;5056140;28;20036;-60
2022/05/30 06:43:01;;;;;;;7.93;1.98;;;;;;;;;;5054952;28;20474;-59
2022/05/30 06:45:27;;;;;;;8.57;2.22;;;;;;;;;;5057497;28;20102;-60
2022/05/30 06:47:52;;;;;;;6.80;2.58;;;;;;;;;;5052537;28;20029;-59
2022/05/30 06:50:18;;;;;;;5.97;2.47;;;;;;;;;;5053315;28;20035;-59
2022/05/30 06:52:44;;;;;;;6.30;2.17;;;;;;;;;;5057413;28;20474;-60
2022/05/30 06:55:10;;;;;;;13.65;2.80;;;;;;;;;;5053955;28;20064;-59
2022/05/30 07:00:20;;;;;;;7.63;2.10;;;;;;;;;;5052259;28;20036;-59
2022/05/30 07:02:47;;;;;;;7.18;2.20;;;;;;;;;;5054679;28;20036;-59
2022/05/30 07:05:13;;;;;;;7.50;2.70;;;;;;;;;;5052983;28;20115;-60
2022/05/30 07:07:39;;;;;;;5.18;2.30;;;;;;;;;;5053647;28;20032;-60
2022/05/30 07:10:06;;;;;;;5.85;2.20;;;;;;;;;;5063231;28;20032;-60
2022/05/30 07:12:32;;;;;;;3.75;1.80;;;;;;;;;;5063325;28;20120;-59
2022/05/30 07:14:58;;;;;;;5.00;2.38;;;;;;;;;;5062513;28;20437;-59
2022/05/30 07:17:25;;;;;;;6.22;2.70;;;;;;;;;;5054586;28;20500;-60
2022/05/30 07:19:51;;;;;;;8.45;2.78;;;;;;;;;;5060377;28;20024;-60
2022/05/30 07:22:17;;;;;;;9.27;2.95;;;;;;;;;;5062200;28;20029;-60
2022/05/30 07:24:44;;;;;;;8.70;2.08;;;;;;;;;;5059572;28;20043;-60
2022/05/30 07:27:10;;;;;;;10.05;2.40;;;;;;;;;;5051387;28;20024;-60
2022/05/30 07:29:36;;;;;;;8.77;2.22;;;;;;;;;;5066091;28;20036;-60
2022/05/30 07:32:03;;;;;;;7.10;2.25;;;;;;;;;;5068240;28;20033;-60
2022/05/30 07:34:30;;;;;;;32.03;3.92;;;;;;;;;;5060613;28;20025;-60
2022/05/30 07:37:00;;;;;;;12.85;3.05;;;;;;;;;;5062866;28;20037;-60
2022/05/30 07:39:26;;;;;;;6.80;2.25;;;;;;;;;;5053599;28;20033;-60
2022/05/30 07:41:52;;;;;;;9.55;2.45;;;;;;;;;;5061021;28;20039;-61
2022/05/30 07:44:18;;;;;;;7.28;2.40;;;;;;;;;;5054691;28;20029;-60
2022/05/30 07:46:44;;;;;;;7.40;2.47;;;;;;;;;;5068362;28;20041;-60
2022/05/30 07:49:12;;;;;;;9.15;2.10;;;;;;;;;;5061333;28;20422;-60
2022/05/30 07:51:39;;;;;;;6.40;2.42;;;;;;;;;;5052520;28;21604;-60
2022/05/30 07:54:05;;;;;;;5.07;2.10;;;;;;;;;;5053890;28;20029;-60
2022/05/30 07:56:31;;;;;;;7.53;2.08;;;;;;;;;;5057412;28;20103;-60
2022/05/30 07:58:57;;;;;;;8.18;2.20;;;;;;;;;;5053091;28;20037;-60
2022/05/30 08:01:23;;;;;;;10.45;2.92;;;;;;;;;;5053216;28;20040;-60
2022/05/30 08:03:51;;;;;;;7.82;2.17;;;;;;;;;;5049608;28;20490;-61
2022/05/30 08:06:21;;;;;;;7.57;2.15;;;;;;;;;;5055654;28;20392;-61
2022/05/30 08:08:46;;;;;;;10.38;2.80;;;;;;;;;;5053214;28;20060;-61
2022/05/30 08:11:15;;;;;;;5.13;1.98;;;;;;;;;;5051617;28;20474;-60
2022/05/30 08:13:42;;;;;;;7.78;2.30;;;;;;;;;;5054843;28;20033;-60
2022/05/30 08:16:08;;;;;;;6.95;2.30;;;;;;;;;;5057934;28;20036;-61
2022/05/30 08:18:34;;;;;;;8.35;2.58;;;;;;;;;;5052009;28;20033;-61
2022/05/30 08:21:01;;;;;;;12.70;2.33;;;;;;;;;;5061339;28;20079;-60
2022/05/30 08:23:27;;;;;;;13.85;2.22;;;;;;;;;;5054128;28;20435;-60
2022/05/30 08:25:54;;;;;;;7.55;2.20;;;;;;;;;;5051534;28;20044;-61
2022/05/30 08:28:20;;;;;;;42.40;3.40;;;;;;;;;;5057935;28;20124;-60
2022/05/30 08:30:46;;;;;;;25.20;2.38;;;;;;;;;;5057283;28;20112;-61
2022/05/30 08:33:14;;;;;;;6.88;1.90;;;;;;;;;;5058675;28;20595;-61
2022/05/30 08:35:40;;;;;;;7.63;2.10;;;;;;;;;;5062069;28;20035;-61
2022/05/30 08:38:08;;;;;;;9.90;2.38;;;;;;;;;;5056620;28;20112;-61
2022/05/30 08:43:30;;;;;;;9.07;2.83;;;;;;;;;;5062136;28;20043;-61
2022/05/30 08:46:32;;;;;;;9.63;2.55;;;;;;;;;;5056727;28;20100;-61
2022/05/30 08:49:01;;;;;;;11.20;2.78;;;;;;;;;;5057352;28;20028;-61
2022/05/30 08:51:45;;;;;;;9.98;2.50;;;;;;;;;;5060178;28;20036;-61
2022/05/30 08:54:54;;;;;;;8.18;2.50;;;;;;;;;;5051409;28;20032;-61
2022/05/30 08:57:33;;;;;;;11.27;2.17;;;;;;;;;;5056284;28;20060;-61
2022/05/30 09:00:23;;;;;;;6.53;2.35;;;;;;;;;;5054845;28;20179;-61
2022/05/30 09:03:05;;;;;;;7.30;2.25;;;;;;;;;;5051066;28;20028;-61
2022/05/30 09:05:56;;;;;;;6.32;2.40;;;;;;;;;;5053659;28;20024;-61
2022/05/30 09:08:30;;;;;;;15.38;2.38;;;;;;;;;;5053703;28;20056;-61
2022/05/30 09:11:03;;;;;;;9.95;2.45;;;;;;;;;;5061958;28;20040;-61
2022/05/30 09:13:42;;;;;;;13.35;2.72;;;;;;;;;;5054958;28;20021;-61
2022/05/30 09:16:16;;;;;;;11.98;2.92;;;;;;;;;;5057338;28;20389;-61
2022/05/30 09:18:48;;;;;;;13.95;2.50;;;;;;;;;;5058409;28;20089;-61
2022/05/30 09:21:15;;;;;;;7.65;2.25;;;;;;;;;;5056234;28;20031;-61
2022/05/30 09:23:41;;;;;;;17.35;3.15;;;;;;;;;;5063607;28;20027;-61
2022/05/30 09:26:16;;;;;;;10.10;2.70;;;;;;;;;;5052007;28;20090;-61
2022/05/30 09:28:44;;;;;;;12.10;2.40;;;;;;;;;;5054141;28;20037;-61
2022/05/30 09:31:24;;;;;;;9.57;2.63;;;;;;;;;;5067658;28;20073;-61
2022/05/30 09:33:53;;;;;;;10.25;2.78;;;;;;;;;;5060237;28;20457;-61
2022/05/30 09:36:31;;;;;;;13.77;2.58;;;;;;;;;;5054803;28;20021;-61
2022/05/30 09:39:01;;;;;;;16.48;2.78;;;;;;;;;;5056732;28;20036;-61
2022/05/30 09:41:37;;;;;;;7.88;2.58;;;;;;;;;;5060630;28;20447;-61
2022/05/30 09:44:10;;;;;;;13.35;2.67;;;;;;;;;;5062522;28;20769;-61
2022/05/30 09:46:52;;;;;;;6.15;2.15;;;;;;;;;;5058478;28;20559;-61
2022/05/30 09:49:41;;;;;;;10.15;2.60;;;;;;;;;;5060057;28;20040;-59
2022/05/30 09:52:25;;;;;;;11.35;2.25;;;;;;;;;;5058592;28;20025;-61
2022/05/30 09:54:52;;;;;;;21.55;2.95;;;;;;;;;;5059436;28;20048;-61
2022/05/30 09:57:43;;;;;;;9.68;2.53;;;;;;;;;;5060254;28;20049;-62
2022/05/30 10:00:17;;;;;;;8.95;2.53;;;;;;;;;;5054941;28;20539;-61
2022/05/30 10:02:46;;;;;;;10.70;2.88;;;;;;;;;;5053177;28;20040;-61
2022/05/30 10:05:15;;;;;;;12.82;2.78;;;;;;;;;;5053962;28;20029;-61
2022/05/30 10:07:52;;;;;;;13.38;2.42;;;;;;;;;;5060923;28;20025;-60
2022/05/30 10:10:27;;;;;;;16.15;2.75;;;;;;;;;;5059691;28;20036;-61
2022/05/30 10:12:56;;;;;;;8.32;2.80;;;;;;;;;;5052699;28;20482;-61
2022/05/30 10:15:43;;;;;;;8.60;2.95;;;;;;;;;;5058647;28;20089;-61
2022/05/30 10:18:18;;;;;;;13.82;2.70;;;;;;;;;;5054370;28;20460;-62
2022/05/30 10:21:23;;;;;;;12.75;2.75;;;;;;;;;;5057274;28;20548;-61
2022/05/30 10:29:55;;;;;;;12.98;2.75;;;;;;;;;;5055068;28;20068;-61
2022/05/30 10:32:20;;;;;;;7.57;2.42;;;;;;;;;;5058654;28;20090;-60
2022/05/30 10:35:30;;;;;;;8.15;2.20;;;;;;;;;;5063912;28;20045;-61
2022/05/30 10:38:11;;;;;;;12.20;2.10;;;;;;;;;;5023577;28;20076;-61
2022/05/30 10:40:37;;;;;;;20.80;2.92;;;;;;;;;;5022156;28;20046;-61
2022/05/30 10:43:11;;;;;;;8.48;2.40;;;;;;;;;;5023297;28;20030;-60
2022/05/30 10:45:50;;;;;;;6.57;2.50;;;;;;;;;;5024709;28;20056;-61
2022/05/30 10:48:32;;;;;;;6.65;2.20;;;;;;;;;;5021842;28;20033;-61
2022/05/30 10:51:02;;;;;;;7.93;2.28;;;;;;;;;;5025792;28;20494;-61
2022/05/30 10:53:49;;;;;;;8.48;2.08;;;;;;;;;;5025480;28;20046;-61
2022/05/30 10:56:30;;;;;;;9.60;2.40;;;;;;;;;;5020543;28;20042;-61
2022/05/30 10:59:11;;;;;;;4.05;1.65;;;;;;;;;;5023594;28;20406;-61
2022/05/30 11:01:50;;;;;;;3.58;1.63;;;;;;;;;;5025344;28;20149;-61
2022/05/30 11:04:45;;;;;;;2.17;1.40;;;;;;;;;;5026816;28;20079;-61
2022/05/30 11:07:36;;;;;;;7.65;1.90;;;;;;;;;;4952737;28;20640;-61
2022/05/30 11:10:24;;;;;;;5.10;1.25;;;;;;;;;;4945525;29;20094;-61
2022/05/30 11:12:59;;;;;;;2.20;1.10;;;;;;;;;;4982558;28;20042;-61
2022/05/30 11:15:38;;;;;;;4.70;1.30;;;;;;;;;;4981618;28;20036;-61
2022/05/30 11:18:23;;;;;;;3.22;1.27;;;;;;;;;;4978425;28;20041;-61
2022/05/30 11:21:05;;;;;;;4.32;1.42;;;;;;;;;;4978253;28;20066;-61
2022/05/30 11:23:31;;;;;;;6.95;1.48;;;;;;;;;;4984146;28;20022;-61
2022/05/30 11:26:17;;;;;;;6.90;1.95;;;;;;;;;;4985918;28;20043;-61
2022/05/30 11:29:03;;;;;;;3.75;1.30;;;;;;;;;;4984804;28;20034;-61
2022/05/30 11:31:53;;;;;;;4.32;1.45;;;;;;;;;;4987005;28;20724;-62
2022/05/30 11:34:52;;;;;;;2.67;1.30;;;;;;;;;;4986424;28;20022;-61
2022/05/30 11:37:55;;;;;;;3.72;1.73;;;;;;;;;;4984541;28;20045;-61
2022/05/30 11:40:34;;;;;;;4.07;1.58;;;;;;;;;;4983501;28;21047;-61
2022/05/30 11:43:02;;;;;;;5.75;1.20;;;;;;;;;;4985792;28;20034;-61
2022/05/30 11:45:47;;;;;;;10.27;1.63;;;;;;;;;;5058745;28;20442;-61
2022/05/30 11:48:21;;;;;;;7.35;1.88;;;;;;;;;;5053501;28;20036;-61
2022/05/30 11:51:09;;;;;;;2.72;1.55;;;;;;;;;;5052997;28;20086;-61
2022/05/30 11:53:46;;;;;;;11.48;1.98;;;;;;;;;;5060689;28;20036;-62
2022/05/30 11:56:21;;;;;;;4.07;1.70;;;;;;;;;;5053283;28;20119;-61
2022/05/30 11:58:59;;;;;;;2.67;1.58;;;;;;;;;;5058628;28;20073;-62
2022/05/30 12:01:27;;;;;;;3.53;1.63;;;;;;;;;;5058742;28;20031;-62
2022/05/30 12:03:59;;;;;;;4.10;1.65;;;;;;;;;;5056059;28;20029;-62
2022/05/30 12:06:39;;;;;;;9.95;2.10;;;;;;;;;;5055112;28;20394;-62
2022/05/30 12:09:35;;;;;;;5.93;2.17;;;;;;;;;;5054425;28;20066;-62
2022/05/30 12:12:07;;;;;;;4.18;2.15;;;;;;;;;;5059549;28;20600;-62
2022/05/30 12:14:45;;;;;;;6.70;2.10;;;;;;;;;;5050913;28;20025;-62
2022/05/30 12:17:25;;;;;;;7.80;2.17;;;;;;;;;;5055615;28;20036;-62
2022/05/30 12:25:36;;;;;;;6.07;1.90;;;;;;;;;;5063515;28;20041;-62
2022/05/30 12:28:06;;;;;;;8.45;2.35;;;;;;;;;;5059527;28;20818;-62
2022/05/30 12:30:35;;;;;;;8.65;1.80;;;;;;;;;;5052536;28;20037;-62
2022/05/30 12:33:21;;;;;;;3.60;1.67;;;;;;;;;;5050731;28;20038;-61
2022/05/30 12:35:47;;;;;;;4.63;1.75;;;;;;;;;;5052678;28;20040;-62
2022/05/30 12:38:15;;;;;;;5.63;2.05;;;;;;;;;;5054293;28;20043;-62
2022/05/30 12:40:53;;;;;;;7.28;2.45;;;;;;;;;;5056844;28;20711;-62
2022/05/30 12:43:23;;;;;;;8.30;1.90;;;;;;;;;;5052104;28;20033;-62
2022/05/30 12:46:10;;;;;;;9.25;1.90;;;;;;;;;;5057181;28;20028;-62
2022/05/30 12:48:39;;;;;;;4.32;1.50;;;;;;;;;;5053320;28;20085;-62
2022/05/30 12:51:24;;;;;;;5.43;1.52;;;;;;;;;;5056553;28;20514;-61
2022/05/30 12:53:57;;;;;;;8.52;1.73;;;;;;;;;;5058649;28;20082;-61
2022/05/30 12:56:38;;;;;;;11.35;1.80;;;;;;;;;;5053939;28;20052;-61
2022/05/30 12:59:03;;;;;;;1.85;1.55;;;;;;;;;;5059174;28;20029;-62
2022/05/30 13:01:42;;;;;;;4.13;1.90;;;;;;;;;;5059367;28;20036;-62
2022/05/30 13:04:25;;;;;;;3.28;1.40;;;;;;;;;;5060488;28;20056;-62
2022/05/30 13:06:57;;;;;;;4.53;1.80;;;;;;;;;;5058583;28;20047;-62
2022/05/30 13:09:35;;;;;;;;;;;;;;;;;;5059386;28;20037;-62
2022/05/30 13:12:14;;;;;;;5.93;1.30;;;;;;;;;;5063040;28;19924;-62
2022/05/30 13:14:50;;;;;;;6.65;2.08;;;;;;;;;;5059041;28;20032;-62
2022/05/30 13:17:18;;;;;;;10.00;1.85;;;;;;;;;;5061483;28;20052;-62
2022/05/30 13:19:54;;;;;;;3.03;1.75;;;;;;;;;;5058889;28;20105;-63
2022/05/30 13:23:00;;;;;;;4.50;2.13;;;;;;;;;;5062235;28;20035;-61
2022/05/30 13:25:30;;;;;;;7.53;2.40;;;;;;;;;;5025867;28;20061;-62
2022/05/30 13:28:05;;;;;;;6.85;2.38;;;;;;;;;;5014793;28;20523;-62
2022/05/30 13:30:30;;;;;;;5.95;1.90;;;;;;;;;;5017586;28;20037;-63
2022/05/30 13:32:56;;;;;;;11.13;2.33;;;;;;;;;;5018188;28;20489;-63
2022/05/30 13:35:31;;;;;;;5.18;2.47;;;;;;;;;;5015012;28;20037;-62
2022/05/30 13:38:04;;;;;;;6.72;2.63;;;;;;;;;;5014505;28;20090;-62
2022/05/30 13:40:32;;;;;;;8.65;2.15;;;;;;;;;;5023602;28;20512;-62
2022/05/30 13:43:03;;;;;;;5.43;1.98;;;;;;;;;;5018795;28;20111;-62
2022/05/30 13:45:40;;;;;;;2.60;1.90;;;;;;;;;;5011897;28;20060;-62
2022/05/30 13:48:11;;;;;;;9.52;2.17;;;;;;;;;;5020909;28;20536;-62
2022/05/30 13:50:58;;;;;;;9.30;2.03;;;;;;;;;;5015676;28;20041;-62
2022/05/30 13:53:32;;;;;;;6.70;1.83;;;;;;;;;;5016078;28;20091;-62
2022/05/30 13:56:18;;;;;;;8.00;2.97;;;;;;;;;;5039314;28;20052;-63
2022/05/30 13:58:50;;;;;;;7.82;2.42;;;;;;;;;;5051328;28;20367;-63
2022/05/30 14:01:25;;;;;;;10.18;2.53;;;;;;;;;;5071585;28;20024;-62
2022/05/30 14:03:57;;;;;;;4.95;2.05;;;;;;;;;;5057289;28;20119;-62
2022/05/30 14:06:32;;;;;;;7.05;1.75;;;;;;;;;;5054481;28;20481;-62
2022/05/30 14:09:05;;;;;;;7.85;2.78;;;;;;;;;;5054683;28;20522;-62
2022/05/30 14:11:34;;;;;;;11.43;2.85;;;;;;;;;;5065412;28;20052;-62
2022/05/30 14:14:01;;;;;;;7.18;2.65;;;;;;;;;;5055124;28;20397;-62
2022/05/30 14:16:34;;;;;;;9.02;3.20;;;;;;;;;;5065003;28;20068;-62
2022/05/30 14:19:12;;;;;;;7.90;2.63;;;;;;;;;;5059505;28;20040;-62
2022/05/30 14:21:49;;;;;;;10.93;2.65;;;;;;;;;;5053195;28;20024;-62
2022/05/30 14:24:25;;;;;;;8.75;2.65;;;;;;;;;;5061236;28;20035;-62
2022/05/30 14:26:53;;;;;;;7.97;3.03;;;;;;;;;;5057377;28;20032;-62
2022/05/30 14:29:24;;;;;;;8.98;2.47;;;;;;;;;;5057481;28;20045;-62
2022/05/30 14:32:06;;;;;;;9.17;2.47;;;;;;;;;;5060280;28;20477;-62
2022/05/30 14:34:40;;;;;;;;;;;;;;;;;;5060555;28;20274;-62
2022/05/30 14:37:28;;;;;;;9.20;2.65;;;;;;;;;;5063358;28;19917;-62
2022/05/30 14:40:03;;;;;;;10.43;2.58;;;;;;;;;;5056530;28;20039;-62
2022/05/30 14:42:42;;;;;;;17.80;3.05;;;;;;;;;;5055767;28;20033;-62
2022/05/30 14:45:12;;;;;;;12.00;3.00;;;;;;;;;;5055319;28;20029;-62
2022/05/30 14:47:42;;;;;;;11.63;2.58;;;;;;;;;;5043438;28;20067;-62
2022/05/30 14:50:13;;;;;;;12.60;2.53;;;;;;;;;;5061568;28;20396;-62
2022/05/30 14:52:46;;;;;;;8.43;2.35;;;;;;;;;;5064081;28;20031;-62
2022/05/30 14:55:23;;;;;;;11.95;2.63;;;;;;;;;;5063270;28;20056;-62
2022/05/30 14:57:51;;;;;;;13.60;2.80;;;;;;;;;;5065153;28;20056;-62
2022/05/30 15:00:50;;;;;;;8.13;2.58;;;;;;;;;;5061774;28;20111;-62
2022/05/30 15:05:59;;;;;;;5.35;2.20;;;;;;;;;;5059741;28;20029;-63
2022/05/30 15:08:25;;;;;;;12.45;2.55;;;;;;;;;;5053843;28;20027;-62
2022/05/30 15:10:51;;;;;;;13.68;2.50;;;;;;;;;;5059681;28;20170;-63
2022/05/30 15:13:17;;;;;;;10.57;2.53;;;;;;;;;;5056723;28;20063;-63
2022/05/30 15:15:43;;;;;;;8.40;2.60;;;;;;;;;;5059077;28;20130;-62
2022/05/30 15:18:09;;;;;;;7.45;2.72;;;;;;;;;;5058043;28;20028;-63
2022/05/30 15:20:37;;;;;;;8.35;2.20;;;;;;;;;;5054796;28;20029;-63
2022/05/30 15:23:03;;;;;;;12.02;2.50;;;;;;;;;;5062225;28;20508;-63
2022/05/30 15:25:30;;;;;;;10.60;2.75;;;;;;;;;;5053408;28;20104;-63
2022/05/30 15:27:57;;;;;;;6.80;2.45;;;;;;;;;;5059419;28;20038;-63
2022/05/30 15:30:23;;;;;;;5.93;2.55;;;;;;;;;;5053545;28;20592;-62
2022/05/30 15:32:49;;;;;;;6.43;2.63;;;;;;;;;;5053923;28;20358;-63
2022/05/30 15:35:14;;;;;;;7.30;2.50;;;;;;;;;;5056224;28;20020;-63
2022/05/30 15:37:40;;;;;;;15.60;3.08;;;;;;;;;;5062102;28;20067;-59